sensor_id;sensor_type;location;lat;lon;timestamp;pressure;altitude;pressure_sealevel;temperature;humidity
54978;BME280;40873;47.522;19.106;2023-04-26T00:00:47;99647.94;;;8.70;100.00
54978;BME280;40873;47.522;19.106;2023-04-26T00:03:14;99648.34;;;8.64;100.00
54978;BME280;40873;47.522;19.106;2023-04-26T00:05:41;99646.94;;;8.59;100.00
54978;BME280;40873;47.522;19.106;2023-04-26T00:08:09;99647.97;;;8.56;100.00
54978;BME280;40873;47.522;19.106;2023-04-26T00:10:36;99648.81;;;8.57;100.00
54978;BME280;40873;47.522;19.106;2023-04-26T00:13:03;99651.53;;;8.55;100.00
54978;BME280;40873;47.522;19.106;2023-04-26T00:15:30;99652.69;;;8.51;100.00
54978;BME280;40873;47.522;19.106;2023-04-26T00:17:57;99655.41;;;8.49;100.00
54978;BME280;40873;47.522;19.106;2023-04-26T00:20:24;99653.72;;;8.48;100.00
54978;BME280;40873;47.522;19.106;2023-04-26T00:22:51;99660.06;;;8.59;100.00
54978;BME280;40873;47.522;19.106;2023-04-26T00:25:18;99661.19;;;8.55;100.00
54978;BME280;40873;47.522;19.106;2023-04-26T00:27:45;99663.75;;;8.56;100.00
54978;BME280;40873;47.522;19.106;2023-04-26T00:30:12;99666.47;;;8.55;100.00
54978;BME280;40873;47.522;19.106;2023-04-26T00:32:40;99685.53;;;8.58;100.00
54978;BME280;40873;47.522;19.106;2023-04-26T00:35:07;99670.25;;;8.50;100.00
54978;BME280;40873;47.522;19.106;2023-04-26T00:37:34;99672.97;;;8.49;100.00
54978;BME280;40873;47.522;19.106;2023-04-26T00:40:01;99683.38;;;8.50;100.00
54978;BME280;40873;47.522;19.106;2023-04-26T00:42:29;99677.38;;;8.48;100.00
54978;BME280;40873;47.522;19.106;2023-04-26T00:44:55;99681.88;;;8.46;100.00
54978;BME280;40873;47.522;19.106;2023-04-26T00:47:24;99685.81;;;8.39;100.00
54978;BME280;40873;47.522;19.106;2023-04-26T00:49:51;99692.88;;;8.39;100.00
54978;BME280;40873;47.522;19.106;2023-04-26T00:52:19;99693.19;;;8.33;100.00
54978;BME280;40873;47.522;19.106;2023-04-26T00:54:47;99690.56;;;8.33;100.00
54978;BME280;40873;47.522;19.106;2023-04-26T00:57:15;99690.22;;;8.24;100.00
54978;BME280;40873;47.522;19.106;2023-04-26T00:59:41;99692.09;;;8.22;100.00
54978;BME280;40873;47.522;19.106;2023-04-26T01:02:08;99696.03;;;8.15;100.00
54978;BME280;40873;47.522;19.106;2023-04-26T01:04:35;99696.97;;;8.14;100.00
54978;BME280;40873;47.522;19.106;2023-04-26T01:07:03;99693.88;;;8.08;100.00
54978;BME280;40873;47.522;19.106;2023-04-26T01:09:31;99698.81;;;8.12;100.00
54978;BME280;40873;47.522;19.106;2023-04-26T01:11:59;99707.94;;;8.07;100.00
54978;BME280;40873;47.522;19.106;2023-04-26T01:14:27;99695.25;;;7.99;100.00
54978;BME280;40873;47.522;19.106;2023-04-26T01:16:56;99703.97;;;8.00;100.00
54978;BME280;40873;47.522;19.106;2023-04-26T01:19:23;99711.31;;;7.94;100.00
54978;BME280;40873;47.522;19.106;2023-04-26T01:21:51;99709.78;;;7.90;100.00
54978;BME280;40873;47.522;19.106;2023-04-26T01:24:18;99709.97;;;7.87;100.00
54978;BME280;40873;47.522;19.106;2023-04-26T01:26:45;99711.94;;;7.84;100.00
54978;BME280;40873;47.522;19.106;2023-04-26T01:29:16;99714.91;;;7.78;100.00
54978;BME280;40873;47.522;19.106;2023-04-26T01:31:46;99715.09;;;7.75;100.00
54978;BME280;40873;47.522;19.106;2023-04-26T01:34:13;99723.72;;;7.77;100.00
54978;BME280;40873;47.522;19.106;2023-04-26T01:36:41;99721.78;;;7.80;100.00
54978;BME280;40873;47.522;19.106;2023-04-26T01:39:08;99716.69;;;7.77;100.00
54978;BME280;40873;47.522;19.106;2023-04-26T01:41:35;99733.22;;;7.79;100.00
54978;BME280;40873;47.522;19.106;2023-04-26T01:44:02;99722.88;;;7.76;100.00
54978;BME280;40873;47.522;19.106;2023-04-26T01:46:29;99725.59;;;7.75;100.00
54978;BME280;40873;47.522;19.106;2023-04-26T01:48:56;99727.56;;;7.71;100.00
54978;BME280;40873;47.522;19.106;2023-04-26T01:51:23;99729.34;;;7.70;100.00
54978;BME280;40873;47.522;19.106;2023-04-26T01:53:50;99723.06;;;7.73;100.00
54978;BME280;40873;47.522;19.106;2023-04-26T01:56:18;99730.19;;;7.71;100.00
54978;BME280;40873;47.522;19.106;2023-04-26T01:58:45;99738.16;;;7.69;100.00
54978;BME280;40873;47.522;19.106;2023-04-26T02:01:12;99728.50;;;7.70;100.00
54978;BME280;40873;47.522;19.106;2023-04-26T02:03:39;99732.75;;;7.73;100.00
54978;BME280;40873;47.522;19.106;2023-04-26T02:06:06;99729.28;;;7.72;100.00
54978;BME280;40873;47.522;19.106;2023-04-26T02:08:35;99731.91;;;7.72;100.00
54978;BME280;40873;47.522;19.106;2023-04-26T02:11:02;99742.66;;;7.67;100.00
54978;BME280;40873;47.522;19.106;2023-04-26T02:13:29;99738.00;;;7.73;100.00
54978;BME280;40873;47.522;19.106;2023-04-26T02:15:56;99744.94;;;7.74;100.00
54978;BME280;40873;47.522;19.106;2023-04-26T02:18:25;99743.25;;;7.73;100.00
54978;BME280;40873;47.522;19.106;2023-04-26T02:20:52;99745.19;;;7.69;100.00
54978;BME280;40873;47.522;19.106;2023-04-26T02:23:19;99738.25;;;7.68;100.00
54978;BME280;40873;47.522;19.106;2023-04-26T02:25:47;99743.59;;;7.66;100.00
54978;BME280;40873;47.522;19.106;2023-04-26T02:28:14;99748.16;;;7.63;100.00
54978;BME280;40873;47.522;19.106;2023-04-26T02:30:44;99747.16;;;7.65;100.00
54978;BME280;40873;47.522;19.106;2023-04-26T02:33:11;99752.31;;;7.67;100.00
54978;BME280;40873;47.522;19.106;2023-04-26T02:35:38;99750.88;;;7.61;100.00
54978;BME280;40873;47.522;19.106;2023-04-26T02:38:05;99752.06;;;7.56;100.00
54978;BME280;40873;47.522;19.106;2023-04-26T02:40:33;99750.13;;;7.59;100.00
54978;BME280;40873;47.522;19.106;2023-04-26T02:43:00;99748.50;;;7.57;100.00
54978;BME280;40873;47.522;19.106;2023-04-26T02:45:27;99753.19;;;7.52;100.00
54978;BME280;40873;47.522;19.106;2023-04-26T02:47:54;99746.66;;;7.59;100.00
54978;BME280;40873;47.522;19.106;2023-04-26T02:50:21;99758.00;;;7.59;100.00
54978;BME280;40873;47.522;19.106;2023-04-26T02:52:48;99762.31;;;7.60;100.00
54978;BME280;40873;47.522;19.106;2023-04-26T02:55:15;99761.13;;;7.50;100.00
54978;BME280;40873;47.522;19.106;2023-04-26T02:57:42;99768.34;;;7.47;100.00
54978;BME280;40873;47.522;19.106;2023-04-26T03:00:10;99769.28;;;7.46;100.00
54978;BME280;40873;47.522;19.106;2023-04-26T03:02:39;99766.91;;;7.41;100.00
54978;BME280;40873;47.522;19.106;2023-04-26T03:05:07;99777.41;;;7.41;100.00
54978;BME280;40873;47.522;19.106;2023-04-26T03:07:35;99777.31;;;7.42;100.00
54978;BME280;40873;47.522;19.106;2023-04-26T03:10:03;99789.69;;;7.40;100.00
54978;BME280;40873;47.522;19.106;2023-04-26T03:12:30;99795.88;;;7.39;100.00
54978;BME280;40873;47.522;19.106;2023-04-26T03:14:57;99798.41;;;7.41;100.00
54978;BME280;40873;47.522;19.106;2023-04-26T03:17:24;99803.06;;;7.36;100.00
54978;BME280;40873;47.522;19.106;2023-04-26T03:19:51;99803.91;;;7.36;100.00
54978;BME280;40873;47.522;19.106;2023-04-26T03:22:18;99812.72;;;7.35;100.00
54978;BME280;40873;47.522;19.106;2023-04-26T03:24:45;99810.28;;;7.32;100.00
54978;BME280;40873;47.522;19.106;2023-04-26T03:27:13;99813.97;;;7.28;100.00
54978;BME280;40873;47.522;19.106;2023-04-26T03:29:40;99823.41;;;7.32;100.00
54978;BME280;40873;47.522;19.106;2023-04-26T03:32:09;99816.69;;;7.27;100.00
54978;BME280;40873;47.522;19.106;2023-04-26T03:34:37;99821.44;;;7.20;100.00
54978;BME280;40873;47.522;19.106;2023-04-26T03:37:03;99821.19;;;7.25;100.00
54978;BME280;40873;47.522;19.106;2023-04-26T03:39:31;99818.16;;;7.17;100.00
54978;BME280;40873;47.522;19.106;2023-04-26T03:41:57;99834.88;;;7.14;100.00
54978;BME280;40873;47.522;19.106;2023-04-26T03:44:24;99825.94;;;7.18;100.00
54978;BME280;40873;47.522;19.106;2023-04-26T03:46:51;99828.88;;;7.12;100.00
54978;BME280;40873;47.522;19.106;2023-04-26T03:49:19;99836.00;;;7.10;100.00
54978;BME280;40873;47.522;19.106;2023-04-26T03:51:46;99833.88;;;7.17;100.00
54978;BME280;40873;47.522;19.106;2023-04-26T03:54:14;99839.63;;;7.07;100.00
54978;BME280;40873;47.522;19.106;2023-04-26T03:56:41;99846.03;;;7.02;100.00
54978;BME280;40873;47.522;19.106;2023-04-26T03:59:08;99851.28;;;7.02;100.00
54978;BME280;40873;47.522;19.106;2023-04-26T04:01:35;99841.47;;;7.05;100.00
54978;BME280;40873;47.522;19.106;2023-04-26T04:04:03;99845.69;;;7.08;100.00
54978;BME280;40873;47.522;19.106;2023-04-26T04:06:30;99844.78;;;7.09;100.00
54978;BME280;40873;47.522;19.106;2023-04-26T04:08:58;99848.28;;;7.09;100.00
54978;BME280;40873;47.522;19.106;2023-04-26T04:11:25;99859.66;;;7.08;100.00
54978;BME280;40873;47.522;19.106;2023-04-26T04:13:52;99850.88;;;7.09;100.00
54978;BME280;40873;47.522;19.106;2023-04-26T04:16:22;99857.03;;;7.08;100.00
54978;BME280;40873;47.522;19.106;2023-04-26T04:18:52;99863.06;;;7.10;100.00
54978;BME280;40873;47.522;19.106;2023-04-26T04:21:22;99855.88;;;7.14;100.00
54978;BME280;40873;47.522;19.106;2023-04-26T04:23:49;99854.19;;;7.13;100.00
54978;BME280;40873;47.522;19.106;2023-04-26T04:26:15;99844.13;;;7.21;100.00
54978;BME280;40873;47.522;19.106;2023-04-26T04:28:43;99848.38;;;7.24;99.19
54978;BME280;40873;47.522;19.106;2023-04-26T04:31:11;99840.22;;;7.28;100.00
54978;BME280;40873;47.522;19.106;2023-04-26T04:33:39;99865.09;;;7.37;99.83
54978;BME280;40873;47.522;19.106;2023-04-26T04:36:06;99873.69;;;7.40;98.57
54978;BME280;40873;47.522;19.106;2023-04-26T04:38:34;99879.75;;;7.41;97.48
54978;BME280;40873;47.522;19.106;2023-04-26T04:41:01;99880.28;;;7.48;98.11
54978;BME280;40873;47.522;19.106;2023-04-26T04:43:28;99882.66;;;7.52;96.29
54978;BME280;40873;47.522;19.106;2023-04-26T04:45:55;99892.97;;;7.55;95.15
54978;BME280;40873;47.522;19.106;2023-04-26T04:48:22;99900.75;;;7.57;94.89
54978;BME280;40873;47.522;19.106;2023-04-26T04:50:49;99901.78;;;7.54;95.00
54978;BME280;40873;47.522;19.106;2023-04-26T04:53:16;99893.72;;;7.57;95.13
54978;BME280;40873;47.522;19.106;2023-04-26T04:55:43;99908.81;;;7.69;94.65
54978;BME280;40873;47.522;19.106;2023-04-26T04:58:10;99911.13;;;7.60;95.35
54978;BME280;40873;47.522;19.106;2023-04-26T05:00:37;99919.75;;;7.62;96.12
54978;BME280;40873;47.522;19.106;2023-04-26T05:03:04;99917.44;;;7.56;97.14
54978;BME280;40873;47.522;19.106;2023-04-26T05:05:34;99923.97;;;7.49;98.62
54978;BME280;40873;47.522;19.106;2023-04-26T05:08:01;99935.91;;;7.38;99.76
54978;BME280;40873;47.522;19.106;2023-04-26T05:10:28;99924.81;;;7.49;99.17
54978;BME280;40873;47.522;19.106;2023-04-26T05:12:55;99927.47;;;7.65;99.03
54978;BME280;40873;47.522;19.106;2023-04-26T05:15:22;99928.56;;;7.61;98.75
54978;BME280;40873;47.522;19.106;2023-04-26T05:17:50;99930.25;;;7.62;98.17
54978;BME280;40873;47.522;19.106;2023-04-26T05:20:17;99931.59;;;7.69;98.26
54978;BME280;40873;47.522;19.106;2023-04-26T05:22:45;99929.72;;;7.71;98.26
54978;BME280;40873;47.522;19.106;2023-04-26T05:25:12;99936.53;;;7.75;98.14
54978;BME280;40873;47.522;19.106;2023-04-26T05:27:39;99938.22;;;7.76;98.10
54978;BME280;40873;47.522;19.106;2023-04-26T05:30:07;99930.09;;;7.81;96.56
54978;BME280;40873;47.522;19.106;2023-04-26T05:32:34;99930.06;;;7.96;95.84
54978;BME280;40873;47.522;19.106;2023-04-26T05:35:01;99931.25;;;7.91;94.26
54978;BME280;40873;47.522;19.106;2023-04-26T05:37:28;99938.25;;;8.06;94.08
54978;BME280;40873;47.522;19.106;2023-04-26T05:39:55;99935.63;;;8.22;94.17
54978;BME280;40873;47.522;19.106;2023-04-26T05:42:22;99935.69;;;8.20;91.41
54978;BME280;40873;47.522;19.106;2023-04-26T05:44:49;99934.59;;;8.40;94.27
54978;BME280;40873;47.522;19.106;2023-04-26T05:47:16;99941.13;;;8.49;90.86
54978;BME280;40873;47.522;19.106;2023-04-26T05:49:43;99934.44;;;8.28;89.13
54978;BME280;40873;47.522;19.106;2023-04-26T05:52:10;99943.19;;;8.28;87.63
54978;BME280;40873;47.522;19.106;2023-04-26T05:54:37;99948.34;;;8.30;86.86
54978;BME280;40873;47.522;19.106;2023-04-26T05:57:07;99939.41;;;8.32;86.03
54978;BME280;40873;47.522;19.106;2023-04-26T05:59:36;99955.47;;;8.28;85.46
54978;BME280;40873;47.522;19.106;2023-04-26T06:02:03;99944.69;;;8.32;84.06
54978;BME280;40873;47.522;19.106;2023-04-26T06:04:30;99953.28;;;8.36;82.82
54978;BME280;40873;47.522;19.106;2023-04-26T06:06:58;99947.13;;;8.51;82.78
54978;BME280;40873;47.522;19.106;2023-04-26T06:09:26;99945.41;;;8.34;81.58
54978;BME280;40873;47.522;19.106;2023-04-26T06:11:53;99955.63;;;8.40;82.34
54978;BME280;40873;47.522;19.106;2023-04-26T06:14:20;99952.19;;;8.54;81.27
54978;BME280;40873;47.522;19.106;2023-04-26T06:16:56;99958.50;;;8.51;80.81
54978;BME280;40873;47.522;19.106;2023-04-26T06:19:23;99966.78;;;8.60;80.72
54978;BME280;40873;47.522;19.106;2023-04-26T06:21:50;99956.00;;;8.64;79.68
54978;BME280;40873;47.522;19.106;2023-04-26T06:24:21;99971.94;;;8.61;78.44
54978;BME280;40873;47.522;19.106;2023-04-26T06:26:49;99967.63;;;8.60;78.72
54978;BME280;40873;47.522;19.106;2023-04-26T06:29:16;99969.16;;;8.64;78.42
54978;BME280;40873;47.522;19.106;2023-04-26T06:31:43;99961.75;;;8.71;77.02
54978;BME280;40873;47.522;19.106;2023-04-26T06:34:10;99968.47;;;8.91;77.31
54978;BME280;40873;47.522;19.106;2023-04-26T06:36:37;99972.69;;;9.07;74.38
54978;BME280;40873;47.522;19.106;2023-04-26T06:39:03;99963.50;;;9.15;73.15
54978;BME280;40873;47.522;19.106;2023-04-26T06:41:31;99971.03;;;9.21;72.66
54978;BME280;40873;47.522;19.106;2023-04-26T06:43:57;99970.19;;;9.34;73.38
54978;BME280;40873;47.522;19.106;2023-04-26T06:46:24;99970.66;;;9.41;72.49
54978;BME280;40873;47.522;19.106;2023-04-26T06:48:54;99978.47;;;9.43;70.68
54978;BME280;40873;47.522;19.106;2023-04-26T06:51:22;99978.66;;;9.54;69.83
54978;BME280;40873;47.522;19.106;2023-04-26T06:53:48;99971.78;;;9.51;69.26
54978;BME280;40873;47.522;19.106;2023-04-26T06:56:19;99976.50;;;9.60;67.23
54978;BME280;40873;47.522;19.106;2023-04-26T06:59:00;99972.91;;;9.61;67.37
54978;BME280;40873;47.522;19.106;2023-04-26T07:01:29;99965.16;;;9.73;67.37
54978;BME280;40873;47.522;19.106;2023-04-26T07:04:03;99967.13;;;9.83;66.44
54978;BME280;40873;47.522;19.106;2023-04-26T07:06:34;99979.78;;;10.05;60.15
54978;BME280;40873;47.522;19.106;2023-04-26T07:09:01;99979.59;;;10.23;58.76
54978;BME280;40873;47.522;19.106;2023-04-26T07:11:30;99977.31;;;10.31;58.02
54978;BME280;40873;47.522;19.106;2023-04-26T07:13:57;99985.72;;;10.36;55.40
54978;BME280;40873;47.522;19.106;2023-04-26T07:16:25;99985.72;;;10.36;56.04
54978;BME280;40873;47.522;19.106;2023-04-26T07:18:52;99982.75;;;10.28;55.99
54978;BME280;40873;47.522;19.106;2023-04-26T07:21:24;99987.41;;;10.24;57.04
54978;BME280;40873;47.522;19.106;2023-04-26T07:23:53;99992.72;;;10.37;55.00
54978;BME280;40873;47.522;19.106;2023-04-26T07:26:22;100004.75;;;10.41;53.48
54978;BME280;40873;47.522;19.106;2023-04-26T07:28:52;99994.16;;;10.28;52.86
54978;BME280;40873;47.522;19.106;2023-04-26T07:31:20;100002.66;;;10.46;53.59
54978;BME280;40873;47.522;19.106;2023-04-26T07:33:47;100008.94;;;10.58;52.71
54978;BME280;40873;47.522;19.106;2023-04-26T07:36:14;99998.16;;;10.61;51.73
54978;BME280;40873;47.522;19.106;2023-04-26T07:38:41;100008.09;;;10.70;50.40
54978;BME280;40873;47.522;19.106;2023-04-26T07:41:08;100009.84;;;10.57;50.26
54978;BME280;40873;47.522;19.106;2023-04-26T07:43:36;100004.00;;;10.66;50.79
54978;BME280;40873;47.522;19.106;2023-04-26T07:46:03;100007.19;;;10.71;50.18
54978;BME280;40873;47.522;19.106;2023-04-26T07:48:30;100007.69;;;10.76;49.75
54978;BME280;40873;47.522;19.106;2023-04-26T07:51:06;100020.75;;;10.92;50.30
54978;BME280;40873;47.522;19.106;2023-04-26T07:53:33;100024.75;;;11.10;47.94
54978;BME280;40873;47.522;19.106;2023-04-26T07:56:03;100029.84;;;11.01;49.67
54978;BME280;40873;47.522;19.106;2023-04-26T07:58:31;100024.66;;;11.24;49.92
54978;BME280;40873;47.522;19.106;2023-04-26T08:00:59;100034.84;;;11.43;48.26
54978;BME280;40873;47.522;19.106;2023-04-26T08:03:26;100030.59;;;11.53;48.42
54978;BME280;40873;47.522;19.106;2023-04-26T08:05:54;100031.53;;;11.65;48.25
54978;BME280;40873;47.522;19.106;2023-04-26T08:08:21;100031.00;;;11.98;49.79
54978;BME280;40873;47.522;19.106;2023-04-26T08:10:48;100028.97;;;12.02;47.94
54978;BME280;40873;47.522;19.106;2023-04-26T08:13:16;100028.69;;;11.94;48.41
54978;BME280;40873;47.522;19.106;2023-04-26T08:15:43;100044.56;;;11.81;45.96
54978;BME280;40873;47.522;19.106;2023-04-26T08:18:10;100039.56;;;11.76;48.17
54978;BME280;40873;47.522;19.106;2023-04-26T08:20:37;100044.53;;;11.94;46.94
54978;BME280;40873;47.522;19.106;2023-04-26T08:23:04;100045.69;;;12.02;48.55
54978;BME280;40873;47.522;19.106;2023-04-26T08:25:31;100048.13;;;11.80;46.41
54978;BME280;40873;47.522;19.106;2023-04-26T08:28:00;100052.69;;;11.91;47.18
54978;BME280;40873;47.522;19.106;2023-04-26T08:30:28;100057.31;;;12.00;46.26
54978;BME280;40873;47.522;19.106;2023-04-26T08:32:55;100058.47;;;11.96;46.71
54978;BME280;40873;47.522;19.106;2023-04-26T08:35:22;100047.88;;;12.08;46.92
54978;BME280;40873;47.522;19.106;2023-04-26T08:37:50;100058.06;;;12.02;45.03
54978;BME280;40873;47.522;19.106;2023-04-26T08:40:21;100048.34;;;11.77;45.73
54978;BME280;40873;47.522;19.106;2023-04-26T08:42:49;100059.88;;;11.50;46.50
54978;BME280;40873;47.522;19.106;2023-04-26T08:45:19;100058.94;;;11.90;47.00
54978;BME280;40873;47.522;19.106;2023-04-26T08:47:51;100063.53;;;12.48;47.60
54978;BME280;40873;47.522;19.106;2023-04-26T08:50:21;100065.63;;;12.56;45.21
54978;BME280;40873;47.522;19.106;2023-04-26T08:52:49;100060.22;;;12.81;46.23
54978;BME280;40873;47.522;19.106;2023-04-26T08:55:18;100061.69;;;13.21;46.22
54978;BME280;40873;47.522;19.106;2023-04-26T08:57:49;100061.47;;;13.00;42.57
54978;BME280;40873;47.522;19.106;2023-04-26T09:00:17;100065.75;;;12.54;43.81
54978;BME280;40873;47.522;19.106;2023-04-26T09:02:47;100066.81;;;12.76;44.18
54978;BME280;40873;47.522;19.106;2023-04-26T09:05:14;100067.25;;;12.94;45.32
54978;BME280;40873;47.522;19.106;2023-04-26T09:07:43;100067.50;;;12.67;43.01
54978;BME280;40873;47.522;19.106;2023-04-26T09:10:12;100063.25;;;12.64;42.43
54978;BME280;40873;47.522;19.106;2023-04-26T09:12:40;100055.72;;;12.95;42.86
54978;BME280;40873;47.522;19.106;2023-04-26T09:15:07;100058.63;;;13.03;43.38
54978;BME280;40873;47.522;19.106;2023-04-26T09:17:37;100060.63;;;12.88;41.35
54978;BME280;40873;47.522;19.106;2023-04-26T09:20:27;100062.75;;;12.83;42.42
54978;BME280;40873;47.522;19.106;2023-04-26T09:23:05;100045.88;;;13.08;41.37
54978;BME280;40873;47.522;19.106;2023-04-26T09:25:33;100061.38;;;13.25;41.49
54978;BME280;40873;47.522;19.106;2023-04-26T09:28:03;100066.13;;;13.44;40.52
54978;BME280;40873;47.522;19.106;2023-04-26T09:30:44;100063.13;;;13.60;40.75
54978;BME280;40873;47.522;19.106;2023-04-26T09:33:11;100048.91;;;13.61;41.84
54978;BME280;40873;47.522;19.106;2023-04-26T09:35:39;100048.78;;;13.96;41.52
54978;BME280;40873;47.522;19.106;2023-04-26T09:38:17;100051.44;;;13.74;40.25
54978;BME280;40873;47.522;19.106;2023-04-26T09:40:46;100055.06;;;14.06;41.15
54978;BME280;40873;47.522;19.106;2023-04-26T09:43:20;100056.13;;;14.04;38.90
54978;BME280;40873;47.522;19.106;2023-04-26T09:45:54;100056.50;;;13.77;39.98
54978;BME280;40873;47.522;19.106;2023-04-26T09:48:29;100055.31;;;13.92;38.97
54978;BME280;40873;47.522;19.106;2023-04-26T09:51:00;100053.59;;;14.02;38.58
54978;BME280;40873;47.522;19.106;2023-04-26T09:53:37;100049.28;;;14.01;39.96
54978;BME280;40873;47.522;19.106;2023-04-26T09:56:06;100052.09;;;14.43;38.58
54978;BME280;40873;47.522;19.106;2023-04-26T09:58:53;100050.22;;;13.89;39.28
54978;BME280;40873;47.522;19.106;2023-04-26T10:01:28;100048.53;;;14.10;39.24
54978;BME280;40873;47.522;19.106;2023-04-26T10:03:56;100052.47;;;14.49;38.03
54978;BME280;40873;47.522;19.106;2023-04-26T10:06:27;100050.78;;;14.80;37.81
54978;BME280;40873;47.522;19.106;2023-04-26T10:08:54;100052.75;;;14.78;36.74
54978;BME280;40873;47.522;19.106;2023-04-26T10:11:22;100044.78;;;14.46;37.56
54978;BME280;40873;47.522;19.106;2023-04-26T10:13:50;100046.13;;;13.74;38.66
54978;BME280;40873;47.522;19.106;2023-04-26T10:16:19;100045.03;;;13.76;38.84
54978;BME280;40873;47.522;19.106;2023-04-26T10:18:46;100048.34;;;14.45;37.97
54978;BME280;40873;47.522;19.106;2023-04-26T10:21:20;100048.72;;;15.37;39.87
54978;BME280;40873;47.522;19.106;2023-04-26T10:23:48;100054.00;;;14.63;37.37
54978;BME280;40873;47.522;19.106;2023-04-26T10:26:50;100055.16;;;14.27;36.66
54978;BME280;40873;47.522;19.106;2023-04-26T10:29:30;100054.72;;;13.77;38.17
54978;BME280;40873;47.522;19.106;2023-04-26T10:32:11;100056.81;;;14.50;38.76
54978;BME280;40873;47.522;19.106;2023-04-26T10:34:43;100048.72;;;14.52;37.00
54978;BME280;40873;47.522;19.106;2023-04-26T10:37:12;100052.28;;;14.08;36.72
54978;BME280;40873;47.522;19.106;2023-04-26T10:39:40;100068.28;;;13.61;37.28
54978;BME280;40873;47.522;19.106;2023-04-26T10:42:24;100067.53;;;13.37;36.93
54978;BME280;40873;47.522;19.106;2023-04-26T10:44:58;100063.13;;;13.82;36.91
54978;BME280;40873;47.522;19.106;2023-04-26T10:47:30;100052.28;;;13.96;37.30
54978;BME280;40873;47.522;19.106;2023-04-26T10:50:02;100051.50;;;14.50;33.86
54978;BME280;40873;47.522;19.106;2023-04-26T10:52:32;100056.69;;;14.52;33.23
54978;BME280;40873;47.522;19.106;2023-04-26T10:54:59;100050.41;;;15.38;35.00
54978;BME280;40873;47.522;19.106;2023-04-26T10:57:48;100044.44;;;15.25;33.72
54978;BME280;40873;47.522;19.106;2023-04-26T11:00:26;100046.81;;;15.07;34.49
54978;BME280;40873;47.522;19.106;2023-04-26T11:03:05;100050.41;;;15.17;34.36
54978;BME280;40873;47.522;19.106;2023-04-26T11:06:04;100041.16;;;15.00;33.50
54978;BME280;40873;47.522;19.106;2023-04-26T11:08:32;100044.97;;;14.43;35.95
54978;BME280;40873;47.522;19.106;2023-04-26T11:11:10;100051.56;;;13.72;35.32
54978;BME280;40873;47.522;19.106;2023-04-26T11:13:41;100052.75;;;13.90;35.94
54978;BME280;40873;47.522;19.106;2023-04-26T11:16:13;100050.84;;;13.92;36.76
54978;BME280;40873;47.522;19.106;2023-04-26T11:18:45;100048.84;;;14.50;33.82
54978;BME280;40873;47.522;19.106;2023-04-26T11:21:12;100048.56;;;14.65;34.55
54978;BME280;40873;47.522;19.106;2023-04-26T11:23:53;100048.84;;;14.39;33.80
54978;BME280;40873;47.522;19.106;2023-04-26T11:26:20;100046.22;;;14.17;33.69
54978;BME280;40873;47.522;19.106;2023-04-26T11:28:48;100057.69;;;13.84;34.25
54978;BME280;40873;47.522;19.106;2023-04-26T11:31:17;100051.19;;;13.65;36.20
54978;BME280;40873;47.522;19.106;2023-04-26T11:33:44;100057.38;;;13.77;37.49
54978;BME280;40873;47.522;19.106;2023-04-26T11:36:13;100054.69;;;13.20;38.32
54978;BME280;40873;47.522;19.106;2023-04-26T11:38:40;100070.66;;;13.42;38.89
54978;BME280;40873;47.522;19.106;2023-04-26T11:41:07;100063.78;;;13.04;37.40
54978;BME280;40873;47.522;19.106;2023-04-26T11:43:37;100067.06;;;13.08;37.27
54978;BME280;40873;47.522;19.106;2023-04-26T11:46:05;100063.78;;;13.28;38.98
54978;BME280;40873;47.522;19.106;2023-04-26T11:48:34;100065.16;;;13.67;37.01
54978;BME280;40873;47.522;19.106;2023-04-26T11:51:03;100064.56;;;13.97;38.26
54978;BME280;40873;47.522;19.106;2023-04-26T11:53:40;100076.88;;;13.87;37.10
54978;BME280;40873;47.522;19.106;2023-04-26T11:56:18;100067.59;;;13.93;38.09
54978;BME280;40873;47.522;19.106;2023-04-26T11:58:50;100061.44;;;14.26;38.54
54978;BME280;40873;47.522;19.106;2023-04-26T12:01:19;100072.31;;;14.01;38.12
54978;BME280;40873;47.522;19.106;2023-04-26T12:03:52;100065.03;;;14.36;36.54
54978;BME280;40873;47.522;19.106;2023-04-26T12:06:25;100070.38;;;14.03;37.49
54978;BME280;40873;47.522;19.106;2023-04-26T12:08:55;100062.16;;;13.83;37.52
54978;BME280;40873;47.522;19.106;2023-04-26T12:11:22;100071.22;;;13.81;37.03
54978;BME280;40873;47.522;19.106;2023-04-26T12:13:49;100067.81;;;13.56;36.47
54978;BME280;40873;47.522;19.106;2023-04-26T12:16:16;100062.38;;;13.47;36.88
54978;BME280;40873;47.522;19.106;2023-04-26T12:18:53;100066.97;;;13.56;36.14
54978;BME280;40873;47.522;19.106;2023-04-26T12:21:20;100055.28;;;13.69;34.34
54978;BME280;40873;47.522;19.106;2023-04-26T12:23:48;100062.03;;;13.62;35.92
54978;BME280;40873;47.522;19.106;2023-04-26T12:26:15;100066.13;;;13.44;36.33
54978;BME280;40873;47.522;19.106;2023-04-26T12:28:43;100065.53;;;13.52;36.34
54978;BME280;40873;47.522;19.106;2023-04-26T12:31:10;100082.34;;;13.04;35.63
54978;BME280;40873;47.522;19.106;2023-04-26T12:33:37;100082.84;;;12.85;35.46
54978;BME280;40873;47.522;19.106;2023-04-26T12:36:09;100079.81;;;13.03;35.55
54978;BME280;40873;47.522;19.106;2023-04-26T12:38:38;100073.22;;;13.20;36.13
54978;BME280;40873;47.522;19.106;2023-04-26T12:41:05;100079.28;;;13.68;36.28
54978;BME280;40873;47.522;19.106;2023-04-26T12:43:33;100076.34;;;14.93;35.23
54978;BME280;40873;47.522;19.106;2023-04-26T12:46:00;100064.34;;;15.30;33.24
54978;BME280;40873;47.522;19.106;2023-04-26T12:48:27;100066.09;;;15.41;32.16
54978;BME280;40873;47.522;19.106;2023-04-26T12:50:54;100083.84;;;14.88;31.92
54978;BME280;40873;47.522;19.106;2023-04-26T12:53:21;100079.28;;;13.79;34.93
54978;BME280;40873;47.522;19.106;2023-04-26T12:55:48;100066.50;;;13.73;35.43